createdAt,value
2023-05-08T00:01:17.057Z,8.90
2023-05-08T00:03:43.491Z,9.00
2023-05-08T00:06:09.828Z,8.71
2023-05-08T00:08:36.032Z,8.56
2023-05-08T00:11:02.269Z,8.72
2023-05-08T00:13:28.478Z,8.73
2023-05-08T00:15:54.705Z,8.74
2023-05-08T00:18:20.921Z,8.77
2023-05-08T00:20:47.195Z,8.68
2023-05-08T00:23:13.543Z,8.67
2023-05-08T00:25:39.749Z,8.74
2023-05-08T00:28:06.003Z,8.70
2023-05-08T00:30:32.232Z,8.53
2023-05-08T00:32:58.479Z,8.58
2023-05-08T00:35:24.742Z,8.61
2023-05-08T00:37:50.966Z,8.65
2023-05-08T00:40:17.187Z,8.74
2023-05-08T00:42:43.379Z,8.66
2023-05-08T00:45:09.761Z,8.72
2023-05-08T00:47:35.990Z,8.69
2023-05-08T00:50:02.242Z,8.58
2023-05-08T00:52:29.276Z,8.55
2023-05-08T00:54:55.492Z,8.66
2023-05-08T00:57:21.838Z,8.64
2023-05-08T00:59:48.039Z,8.70
2023-05-08T01:02:14.303Z,8.65
2023-05-08T01:04:40.573Z,8.69
2023-05-08T01:07:06.766Z,8.68
2023-05-08T01:09:32.977Z,8.59
2023-05-08T01:12:05.439Z,8.61
2023-05-08T01:14:46.762Z,8.54
2023-05-08T01:17:22.049Z,8.26
2023-05-08T01:20:05.444Z,8.50
2023-05-08T01:22:43.582Z,8.39
2023-05-08T01:25:09.736Z,8.42
2023-05-08T01:27:47.895Z,8.28
2023-05-08T01:30:29.577Z,8.43
2023-05-08T01:32:56.720Z,8.50
2023-05-08T01:35:27.672Z,8.58
2023-05-08T01:37:56.858Z,8.34
2023-05-08T01:40:33.487Z,8.34
2023-05-08T01:43:03.636Z,8.42
2023-05-08T01:45:31.279Z,8.24
2023-05-08T01:48:00.484Z,8.15
2023-05-08T01:50:30.265Z,8.00
2023-05-08T01:53:02.787Z,7.94
2023-05-08T01:55:30.555Z,8.08
2023-05-08T01:57:57.505Z,8.16
2023-05-08T02:00:23.733Z,8.29
2023-05-08T02:02:50.042Z,8.18
2023-05-08T02:05:16.399Z,8.02
2023-05-08T02:07:42.653Z,8.18
2023-05-08T02:10:08.858Z,8.05
2023-05-08T02:12:35.083Z,7.97
2023-05-08T02:15:01.318Z,7.73
2023-05-08T02:17:27.636Z,7.97
2023-05-08T02:19:54.054Z,7.79
2023-05-08T02:22:20.271Z,7.93
2023-05-08T02:24:46.480Z,8.08
2023-05-08T02:27:12.679Z,7.96
2023-05-08T02:29:38.899Z,7.90
2023-05-08T02:32:05.279Z,7.83
2023-05-08T02:34:31.548Z,8.00
2023-05-08T02:36:57.769Z,7.94
2023-05-08T02:39:25.274Z,7.83
2023-05-08T02:41:51.503Z,7.88
2023-05-08T02:44:17.699Z,7.79
2023-05-08T02:46:53.200Z,7.78
2023-05-08T02:49:42.084Z,7.78
2023-05-08T02:52:27.184Z,7.75
2023-05-08T02:54:58.491Z,7.80
2023-05-08T02:57:43.563Z,7.80
2023-05-08T03:00:16.599Z,7.73
2023-05-08T03:03:05.177Z,7.80
2023-05-08T03:05:37.823Z,7.59
2023-05-08T03:08:05.089Z,7.60
2023-05-08T03:10:34.487Z,7.49
2023-05-08T03:13:02.745Z,7.48
2023-05-08T03:15:41.759Z,7.15
2023-05-08T03:18:08.769Z,7.30
2023-05-08T03:20:37.232Z,7.42
2023-05-08T03:23:03.456Z,7.36
2023-05-08T03:25:29.804Z,7.32
2023-05-08T03:27:56.061Z,7.49
2023-05-08T03:30:22.296Z,7.64
2023-05-08T03:32:48.531Z,7.62
2023-05-08T03:35:14.746Z,7.59
2023-05-08T03:37:40.962Z,7.51
2023-05-08T03:40:07.460Z,7.67
2023-05-08T03:42:33.671Z,7.66
2023-05-08T03:44:59.894Z,7.61
2023-05-08T03:47:26.188Z,7.61
2023-05-08T03:49:52.464Z,7.54
2023-05-08T03:52:18.686Z,7.51
2023-05-08T03:54:44.910Z,7.47
2023-05-08T03:57:11.121Z,7.61
2023-05-08T03:59:40.390Z,7.66
2023-05-08T04:02:12.794Z,7.56
2023-05-08T04:04:39.568Z,7.71
2023-05-08T04:07:13.007Z,7.64
2023-05-08T04:09:43.203Z,7.65
2023-05-08T04:12:17.700Z,7.56
2023-05-08T04:14:45.388Z,7.58
2023-05-08T04:17:11.793Z,7.65
2023-05-08T04:19:38.760Z,7.66
2023-05-08T04:22:05.951Z,7.63
2023-05-08T04:24:32.139Z,7.59
2023-05-08T04:26:58.357Z,7.63
2023-05-08T04:29:24.565Z,7.71
2023-05-08T04:31:50.858Z,7.85
2023-05-08T04:34:17.133Z,7.79
2023-05-08T04:36:43.337Z,7.81
2023-05-08T04:39:09.541Z,8.04
2023-05-08T04:41:35.827Z,7.98
2023-05-08T04:44:02.627Z,7.94
2023-05-08T04:46:28.908Z,8.07
2023-05-08T04:48:55.168Z,8.34
2023-05-08T04:51:21.380Z,8.38
2023-05-08T04:53:47.571Z,8.65
2023-05-08T04:56:13.780Z,8.93
2023-05-08T04:58:39.979Z,9.23
2023-05-08T05:01:06.307Z,9.80
2023-05-08T05:03:32.719Z,9.77
2023-05-08T05:06:01.914Z,10.00
2023-05-08T05:08:28.125Z,10.23
2023-05-08T05:10:54.339Z,9.85
2023-05-08T05:13:20.701Z,9.54
2023-05-08T05:15:46.960Z,9.63
2023-05-08T05:18:13.314Z,9.58
2023-05-08T05:20:39.545Z,10.00
2023-05-08T05:23:05.755Z,10.66
2023-05-08T05:25:31.965Z,10.54
2023-05-08T05:27:58.180Z,11.06
2023-05-08T05:30:24.393Z,11.53
2023-05-08T05:32:50.639Z,11.58
2023-05-08T05:35:16.876Z,11.93
2023-05-08T05:37:43.113Z,12.03
2023-05-08T05:40:09.497Z,12.26
2023-05-08T05:42:35.732Z,12.26
2023-05-08T05:45:02.048Z,12.45
2023-05-08T05:47:28.352Z,12.87
2023-05-08T05:49:54.594Z,12.80
2023-05-08T05:52:20.805Z,13.07
2023-05-08T05:54:47.004Z,13.28
2023-05-08T05:57:13.378Z,13.56
2023-05-08T05:59:39.976Z,13.52
2023-05-08T06:02:06.627Z,13.88
2023-05-08T06:04:33.008Z,14.11
2023-05-08T06:06:59.370Z,13.85
2023-05-08T06:09:25.588Z,14.20
2023-05-08T06:11:51.806Z,13.37
2023-05-08T06:14:18.012Z,13.58
2023-05-08T06:16:44.266Z,13.42
2023-05-08T06:19:10.484Z,13.52
2023-05-08T06:21:36.700Z,14.36
2023-05-08T06:24:02.903Z,13.19
2023-05-08T06:26:29.117Z,13.21
2023-05-08T06:28:55.344Z,13.02
2023-05-08T06:31:21.604Z,13.52
2023-05-08T06:33:47.845Z,13.93
2023-05-08T06:36:14.071Z,13.95
2023-05-08T06:38:40.280Z,14.31
2023-05-08T06:41:06.488Z,14.08
2023-05-08T06:43:32.691Z,13.94
2023-05-08T06:45:58.907Z,14.69
2023-05-08T06:48:25.117Z,14.44
2023-05-08T06:50:51.318Z,14.15
2023-05-08T06:53:17.512Z,14.40
2023-05-08T06:55:43.736Z,14.30
2023-05-08T06:58:09.968Z,14.44
2023-05-08T07:00:36.248Z,14.21
2023-05-08T07:03:02.473Z,14.82
2023-05-08T07:05:28.740Z,15.63
2023-05-08T07:07:54.938Z,15.35
2023-05-08T07:10:21.381Z,14.94
2023-05-08T07:12:48.271Z,14.04
2023-05-08T07:15:25.332Z,14.29
2023-05-08T07:17:52.527Z,14.50
2023-05-08T07:20:18.764Z,15.09
2023-05-08T07:22:45.316Z,14.68
2023-05-08T07:25:11.743Z,14.78
2023-05-08T07:27:38.157Z,14.77
2023-05-08T07:30:04.521Z,14.61
2023-05-08T07:32:30.763Z,15.21
2023-05-08T07:34:57.011Z,15.49
2023-05-08T07:37:23.215Z,15.32
2023-05-08T07:39:49.424Z,15.44
2023-05-08T07:42:15.632Z,15.22
2023-05-08T07:44:53.649Z,15.13
2023-05-08T07:47:20.892Z,15.42
2023-05-08T07:49:47.156Z,16.02
2023-05-08T07:52:13.384Z,16.05
2023-05-08T07:54:39.633Z,16.84
2023-05-08T07:57:05.845Z,16.14
2023-05-08T07:59:32.038Z,15.13
2023-05-08T08:01:58.268Z,14.70
2023-05-08T08:04:24.491Z,15.18
2023-05-08T08:06:50.759Z,15.34
2023-05-08T08:09:16.973Z,15.20
2023-05-08T08:11:43.198Z,15.39
2023-05-08T08:14:09.398Z,15.17
2023-05-08T08:16:35.614Z,15.40
2023-05-08T08:19:01.868Z,15.90
2023-05-08T08:21:28.086Z,15.76
2023-05-08T08:23:54.283Z,15.89
2023-05-08T08:26:20.482Z,16.19
2023-05-08T08:28:46.767Z,16.48
2023-05-08T08:31:14.229Z,16.42
2023-05-08T08:33:40.542Z,16.72
2023-05-08T08:36:14.805Z,16.54
2023-05-08T08:38:41.097Z,16.99
2023-05-08T08:41:07.316Z,17.35
2023-05-08T08:43:33.862Z,17.69
2023-05-08T08:46:05.146Z,17.07
2023-05-08T08:48:31.424Z,17.13
2023-05-08T08:50:58.814Z,17.72
2023-05-08T08:53:30.871Z,16.91
2023-05-08T08:55:57.172Z,16.94
2023-05-08T08:58:26.510Z,16.90
2023-05-08T09:00:52.742Z,17.26
2023-05-08T09:03:20.054Z,17.68
2023-05-08T09:05:46.360Z,17.95
2023-05-08T09:08:12.612Z,17.65
2023-05-08T09:10:40.538Z,17.41
2023-05-08T09:13:06.859Z,16.94
2023-05-08T09:15:33.524Z,17.18
2023-05-08T09:18:00.897Z,17.02
2023-05-08T09:20:27.133Z,16.85
2023-05-08T09:22:53.492Z,16.91
2023-05-08T09:25:19.712Z,17.95
2023-05-08T09:27:47.128Z,18.16
2023-05-08T09:30:13.374Z,18.54
2023-05-08T09:32:44.023Z,17.88
2023-05-08T09:35:11.289Z,17.15
2023-05-08T09:37:41.822Z,17.03
2023-05-08T09:40:20.963Z,17.77
2023-05-08T09:42:49.599Z,17.80
2023-05-08T09:45:25.778Z,18.49
2023-05-08T09:47:52.090Z,18.47
2023-05-08T09:50:18.381Z,18.88
2023-05-08T09:52:48.259Z,18.23
2023-05-08T09:55:14.537Z,18.01
2023-05-08T09:57:51.251Z,18.05
2023-05-08T10:00:17.861Z,17.79
2023-05-08T10:02:54.112Z,17.92
2023-05-08T10:05:24.732Z,18.19
2023-05-08T10:07:52.388Z,18.02
2023-05-08T10:10:28.363Z,18.30
2023-05-08T10:12:55.216Z,18.64
2023-05-08T10:15:44.843Z,18.72
2023-05-08T10:18:12.801Z,19.14
2023-05-08T10:20:41.994Z,19.09
2023-05-08T10:23:08.563Z,18.92
2023-05-08T10:25:35.160Z,19.52
2023-05-08T10:28:10.292Z,19.65
2023-05-08T10:30:37.464Z,19.70
2023-05-08T10:33:06.429Z,19.83
2023-05-08T10:35:32.769Z,19.40
2023-05-08T10:38:01.344Z,18.92
2023-05-08T10:40:28.034Z,18.52
2023-05-08T10:42:54.247Z,18.96
2023-05-08T10:45:22.102Z,19.48
2023-05-08T10:47:53.865Z,19.21
2023-05-08T10:50:39.180Z,19.33
2023-05-08T10:53:14.226Z,19.00
2023-05-08T10:55:41.169Z,18.45
2023-05-08T10:58:13.390Z,18.53
2023-05-08T11:00:52.180Z,18.91
2023-05-08T11:03:30.614Z,19.19
2023-05-08T11:06:02.038Z,18.43
2023-05-08T11:08:28.734Z,18.76
2023-05-08T11:11:05.540Z,18.74
2023-05-08T11:13:48.264Z,18.44
2023-05-08T11:16:14.590Z,18.20
2023-05-08T11:19:13.253Z,18.54
2023-05-08T11:21:40.931Z,18.70
2023-05-08T11:24:10.472Z,19.47
2023-05-08T11:26:46.744Z,19.58
2023-05-08T11:29:21.161Z,19.42
2023-05-08T11:31:51.507Z,18.94
2023-05-08T11:34:44.085Z,18.87
2023-05-08T11:37:13.757Z,18.53
2023-05-08T11:39:41.046Z,18.57
2023-05-08T11:42:26.335Z,18.57
2023-05-08T11:45:05.920Z,18.42
2023-05-08T11:47:42.681Z,18.71
2023-05-08T11:50:13.602Z,18.73
2023-05-08T11:52:40.876Z,19.50
2023-05-08T11:55:07.969Z,19.97
2023-05-08T11:57:34.242Z,19.93
2023-05-08T12:00:07.132Z,19.75
2023-05-08T12:02:42.935Z,19.38
2023-05-08T12:05:09.694Z,19.24
2023-05-08T12:07:42.767Z,19.15
2023-05-08T12:10:09.184Z,19.08
2023-05-08T12:12:43.519Z,19.23
2023-05-08T12:15:10.479Z,19.30
2023-05-08T12:17:36.754Z,19.32
2023-05-08T12:20:12.964Z,19.08
2023-05-08T12:22:49.660Z,19.11
2023-05-08T12:25:16.228Z,19.14
2023-05-08T12:27:44.234Z,19.11
2023-05-08T12:30:18.738Z,19.38
2023-05-08T12:32:47.066Z,19.98
2023-05-08T12:35:13.376Z,19.04
2023-05-08T12:37:46.981Z,19.47
2023-05-08T12:40:23.485Z,19.37
2023-05-08T12:42:50.750Z,18.69
2023-05-08T12:45:21.199Z,18.83
2023-05-08T12:47:48.175Z,19.09
2023-05-08T12:50:15.131Z,18.96
2023-05-08T12:52:41.549Z,19.01
2023-05-08T12:55:24.575Z,18.87
2023-05-08T12:57:51.031Z,18.78
2023-05-08T13:00:17.713Z,19.34
2023-05-08T13:02:53.577Z,19.45
2023-05-08T13:05:22.934Z,19.24
2023-05-08T13:07:52.230Z,18.97
2023-05-08T13:10:23.444Z,19.05
2023-05-08T13:12:51.074Z,19.18
2023-05-08T13:15:17.328Z,19.20
2023-05-08T13:17:43.588Z,19.13
2023-05-08T13:20:10.271Z,19.26
2023-05-08T13:22:36.529Z,19.35
2023-05-08T13:25:02.767Z,19.31
2023-05-08T13:27:28.970Z,19.51
2023-05-08T13:29:55.166Z,19.18
2023-05-08T13:32:21.420Z,19.36
2023-05-08T13:34:51.402Z,19.54
2023-05-08T13:37:18.470Z,19.66
2023-05-08T13:39:44.684Z,19.55
2023-05-08T13:42:10.911Z,19.56
2023-05-08T13:44:37.119Z,19.23
2023-05-08T13:47:03.557Z,19.09
2023-05-08T13:49:29.752Z,18.55
2023-05-08T13:51:57.189Z,18.33
2023-05-08T13:54:23.678Z,18.24
2023-05-08T13:56:49.917Z,18.57
2023-05-08T13:59:16.238Z,18.67
2023-05-08T14:01:42.502Z,18.45
2023-05-08T14:04:08.934Z,19.03
2023-05-08T14:06:35.247Z,18.64
2023-05-08T14:09:01.455Z,18.75
2023-05-08T14:11:27.867Z,18.76
2023-05-08T14:13:54.097Z,18.40
2023-05-08T14:16:20.487Z,18.64
2023-05-08T14:18:46.720Z,18.72
2023-05-08T14:21:12.937Z,18.70
2023-05-08T14:23:39.136Z,18.56
2023-05-08T14:26:05.342Z,18.46
2023-05-08T14:28:31.551Z,18.50
2023-05-08T14:30:57.876Z,18.60
2023-05-08T14:33:24.103Z,18.99
2023-05-08T14:35:50.318Z,18.82
2023-05-08T14:38:16.539Z,18.63
2023-05-08T14:40:42.757Z,18.80
2023-05-08T14:43:09.050Z,18.59
2023-05-08T14:45:35.538Z,18.47
2023-05-08T14:48:01.788Z,18.39
2023-05-08T14:50:28.044Z,18.45
2023-05-08T14:52:54.441Z,18.62
2023-05-08T14:55:21.452Z,18.56
2023-05-08T14:57:48.064Z,18.80
2023-05-08T15:00:14.972Z,18.67
2023-05-08T15:02:41.475Z,18.86
2023-05-08T15:05:10.999Z,18.84
2023-05-08T15:07:43.509Z,18.77
2023-05-08T15:10:09.803Z,18.66
2023-05-08T15:12:36.025Z,18.29
2023-05-08T15:15:04.398Z,18.26
2023-05-08T15:17:31.045Z,18.29
2023-05-08T15:19:57.290Z,18.37
2023-05-08T15:22:23.566Z,18.43
2023-05-08T15:24:49.771Z,18.62
2023-05-08T15:27:15.980Z,18.17
2023-05-08T15:29:42.189Z,18.28
2023-05-08T15:32:08.600Z,18.37
2023-05-08T15:34:34.892Z,18.46
2023-05-08T15:37:01.139Z,18.41
2023-05-08T15:39:27.356Z,18.33
2023-05-08T15:41:53.562Z,18.44
2023-05-08T15:44:19.822Z,18.09
2023-05-08T15:46:46.094Z,18.18
2023-05-08T15:49:12.358Z,18.47
2023-05-08T15:51:38.606Z,17.90
2023-05-08T15:54:04.830Z,17.84
2023-05-08T15:56:31.040Z,17.86
2023-05-08T15:58:57.243Z,17.86
2023-05-08T16:01:23.508Z,17.91
2023-05-08T16:03:49.806Z,17.82
2023-05-08T16:06:16.093Z,17.85
2023-05-08T16:08:42.309Z,17.80
2023-05-08T16:11:08.526Z,17.80
2023-05-08T16:13:34.747Z,17.71
2023-05-08T16:16:04.233Z,17.83
2023-05-08T16:18:30.502Z,17.62
2023-05-08T16:20:56.714Z,17.66
2023-05-08T16:23:22.931Z,17.67
2023-05-08T16:25:49.140Z,17.53
2023-05-08T16:28:15.446Z,17.51
2023-05-08T16:30:41.723Z,17.64
2023-05-08T16:33:08.069Z,17.65
2023-05-08T16:35:34.303Z,17.66
2023-05-08T16:38:00.518Z,17.62
2023-05-08T16:40:26.703Z,17.69
2023-05-08T16:42:52.913Z,17.45
2023-05-08T16:45:19.128Z,17.39
2023-05-08T16:47:45.735Z,17.41
2023-05-08T16:50:12.129Z,17.49
2023-05-08T16:52:38.487Z,17.54
2023-05-08T16:55:04.893Z,17.45
2023-05-08T16:57:31.129Z,17.24
2023-05-08T16:59:57.329Z,17.20
2023-05-08T17:02:23.649Z,17.25
2023-05-08T17:04:49.922Z,17.05
2023-05-08T17:07:16.424Z,16.98
2023-05-08T17:09:42.649Z,17.08
2023-05-08T17:12:08.881Z,16.97
2023-05-08T17:14:35.150Z,16.98
2023-05-08T17:17:01.370Z,16.94
2023-05-08T17:19:27.586Z,16.89
2023-05-08T17:21:54.133Z,16.79
2023-05-08T17:24:20.349Z,16.79
2023-05-08T17:26:46.900Z,16.74
2023-05-08T17:29:13.089Z,16.51
2023-05-08T17:31:39.326Z,16.60
2023-05-08T17:34:08.544Z,16.55
2023-05-08T17:36:34.915Z,16.48
2023-05-08T17:39:01.124Z,16.42
2023-05-08T17:41:27.383Z,16.40
2023-05-08T17:43:53.577Z,16.34
2023-05-08T17:46:22.192Z,16.27
2023-05-08T17:48:48.406Z,16.19
2023-05-08T17:51:14.917Z,16.20
2023-05-08T17:53:41.142Z,16.17
2023-05-08T17:56:08.703Z,16.06
2023-05-08T17:58:34.938Z,15.95
2023-05-08T18:01:01.185Z,15.91
2023-05-08T18:03:27.498Z,15.88
2023-05-08T18:05:53.755Z,15.75
2023-05-08T18:08:19.981Z,15.74
2023-05-08T18:10:46.183Z,15.63
2023-05-08T18:13:12.435Z,15.43
2023-05-08T18:15:41.846Z,15.38
2023-05-08T18:18:08.146Z,15.33
2023-05-08T18:20:34.502Z,15.27
2023-05-08T18:23:00.787Z,15.06
2023-05-08T18:25:27.010Z,14.87
2023-05-08T18:27:53.224Z,15.01
2023-05-08T18:30:19.427Z,14.95
2023-05-08T18:32:45.682Z,14.84
2023-05-08T18:35:11.894Z,14.80
2023-05-08T18:37:38.110Z,14.89
2023-05-08T18:40:04.487Z,14.83
2023-05-08T18:42:30.706Z,14.72
2023-05-08T18:44:56.909Z,14.65
2023-05-08T18:47:23.217Z,14.71
2023-05-08T18:49:50.390Z,14.62
2023-05-08T18:52:16.620Z,14.53
2023-05-08T18:54:42.815Z,14.47
2023-05-08T18:57:09.026Z,14.43
2023-05-08T18:59:35.227Z,14.38
2023-05-08T19:02:01.451Z,14.36
2023-05-08T19:04:27.666Z,14.28
2023-05-08T19:06:53.906Z,14.13
2023-05-08T19:09:20.121Z,14.11
2023-05-08T19:11:46.335Z,14.13
2023-05-08T19:14:12.539Z,13.99
2023-05-08T19:16:38.756Z,13.91
2023-05-08T19:19:04.979Z,13.88
2023-05-08T19:21:31.209Z,13.84
2023-05-08T19:23:57.420Z,13.68
2023-05-08T19:26:23.645Z,13.75
2023-05-08T19:28:49.866Z,13.63
2023-05-08T19:31:16.120Z,13.61
2023-05-08T19:33:42.372Z,13.68
2023-05-08T19:36:08.585Z,13.70
2023-05-08T19:38:34.812Z,13.62
2023-05-08T19:41:01.017Z,13.68
2023-05-08T19:43:27.238Z,13.55
2023-05-08T19:45:53.487Z,13.43
2023-05-08T19:48:19.770Z,13.43
2023-05-08T19:50:46.071Z,13.40
2023-05-08T19:53:12.299Z,13.22
2023-05-08T19:55:38.512Z,13.32
2023-05-08T19:58:04.732Z,13.24
2023-05-08T20:00:30.930Z,13.18
2023-05-08T20:02:57.174Z,13.19
2023-05-08T20:05:23.543Z,13.17
2023-05-08T20:07:49.861Z,13.00
2023-05-08T20:10:16.380Z,12.80
2023-05-08T20:12:42.848Z,12.77
2023-05-08T20:15:09.414Z,12.90
2023-05-08T20:17:35.667Z,12.55
2023-05-08T20:20:01.995Z,12.69
2023-05-08T20:22:28.272Z,12.96
2023-05-08T20:24:54.485Z,12.74
2023-05-08T20:27:20.705Z,12.60
2023-05-08T20:29:46.898Z,12.75
2023-05-08T20:32:13.149Z,12.67
2023-05-08T20:34:39.364Z,12.76
2023-05-08T20:37:05.598Z,12.71
2023-05-08T20:39:31.806Z,12.75
2023-05-08T20:41:58.019Z,12.76
2023-05-08T20:44:24.226Z,12.59
2023-05-08T20:46:50.447Z,12.63
2023-05-08T20:49:16.655Z,12.61
2023-05-08T20:51:42.937Z,12.53
2023-05-08T20:54:09.367Z,12.52
2023-05-08T20:56:35.591Z,12.33
2023-05-08T20:59:02.015Z,12.44
2023-05-08T21:01:28.261Z,12.26
2023-05-08T21:03:54.500Z,12.34
2023-05-08T21:06:20.756Z,12.42
2023-05-08T21:08:46.981Z,12.27
2023-05-08T21:11:13.185Z,12.36
2023-05-08T21:13:39.395Z,12.30
2023-05-08T21:16:05.705Z,12.14
2023-05-08T21:18:31.942Z,12.22
2023-05-08T21:20:58.137Z,12.23
2023-05-08T21:23:24.373Z,12.24
2023-05-08T21:25:50.621Z,12.12
2023-05-08T21:28:16.880Z,11.93
2023-05-08T21:30:43.372Z,12.00
2023-05-08T21:33:09.582Z,12.00
2023-05-08T21:35:36.064Z,11.94
2023-05-08T21:38:02.281Z,11.99
2023-05-08T21:40:28.502Z,11.77
2023-05-08T21:42:54.735Z,11.83
2023-05-08T21:45:20.957Z,11.88
2023-05-08T21:47:47.285Z,11.86
2023-05-08T21:50:13.515Z,11.84
2023-05-08T21:52:39.742Z,11.70
2023-05-08T21:55:06.196Z,11.69
2023-05-08T21:57:32.420Z,11.59
2023-05-08T21:59:58.684Z,11.59
2023-05-08T22:02:25.026Z,11.61
2023-05-08T22:04:51.290Z,11.38
2023-05-08T22:07:17.525Z,11.38
2023-05-08T22:09:43.788Z,11.31
2023-05-08T22:12:10.010Z,11.49
2023-05-08T22:14:36.216Z,11.28
2023-05-08T22:17:02.437Z,11.30
2023-05-08T22:19:28.646Z,11.23
2023-05-08T22:21:54.854Z,11.30
2023-05-08T22:24:22.255Z,11.20
2023-05-08T22:26:48.470Z,11.26
2023-05-08T22:29:14.668Z,11.19
2023-05-08T22:31:40.901Z,11.31
2023-05-08T22:34:07.126Z,11.27
2023-05-08T22:36:33.346Z,11.50
2023-05-08T22:38:59.620Z,11.29
2023-05-08T22:41:25.849Z,11.34
2023-05-08T22:43:52.044Z,11.39
2023-05-08T22:46:18.375Z,11.35
2023-05-08T22:48:44.769Z,11.13
2023-05-08T22:51:10.984Z,11.17
2023-05-08T22:53:37.198Z,11.38
2023-05-08T22:56:03.454Z,11.15
2023-05-08T22:58:29.656Z,10.86
2023-05-08T23:00:55.939Z,11.02
2023-05-08T23:03:22.199Z,10.95
2023-05-08T23:05:48.410Z,11.13
2023-05-08T23:08:14.608Z,11.17
2023-05-08T23:10:40.840Z,11.01
2023-05-08T23:13:07.101Z,11.15
2023-05-08T23:15:33.345Z,11.00
2023-05-08T23:17:59.560Z,10.91
2023-05-08T23:20:25.915Z,11.00
2023-05-08T23:22:52.133Z,11.06
2023-05-08T23:25:18.410Z,10.95
2023-05-08T23:27:44.653Z,11.02
2023-05-08T23:30:10.975Z,11.00
2023-05-08T23:32:37.232Z,11.08
2023-05-08T23:35:03.551Z,11.06
2023-05-08T23:37:29.763Z,11.01
2023-05-08T23:39:55.999Z,11.04
2023-05-08T23:42:22.226Z,10.87
2023-05-08T23:44:48.451Z,10.97
2023-05-08T23:47:14.656Z,10.82
2023-05-08T23:49:40.860Z,10.71
2023-05-08T23:52:07.079Z,10.66
2023-05-08T23:54:33.299Z,10.52
2023-05-08T23:56:59.523Z,10.49
2023-05-08T23:59:25.718Z,10.68
